Aérodrome :
LOGIN :

S'inscrire | Disclaimer

   EN    FR    IT 

 










Légende :    VFR   VFR Marginal   IFR   IFR Intensif   IFR Très Intensif
Visi : 
Plafond : 
>= 8 km
>= 3000ft
5 à 8 km
1000 à 3000 ft
1500m à 5 km
500 à 1000 ft
800 à 1500m
200 à 500 ft
< 800m
< 200 ft
Symboles :   Orages  Brouillard  Fortes neiges  Fortes précipitations  Vent > 20 kt
SIGMETs :   Divers  Orages  Givrage  Turbulence  Onde Orograph.  Cendres Volcan.






- Altitude de l'aérodrome : 65 ft
- Code IATA : ADA


LTAF - Adana

DERNIER METAR :
  • 300150Z 05004KT 9999 FEW040 17/14 Q1016 NOSIG RMK RWY23 00000KT

METARs EXPIRÉS :
  • 300120Z VRB02KT 9999 FEW040 16/14 Q1016 NOSIG RMK RWY23 07002KT
  • 300050Z 07004KT 9999 FEW040 18/14 Q1016 NOSIG RMK RWY23 09003KT
  • 300020Z 05005KT 9999 FEW040 18/14 Q1015 NOSIG RMK RWY23 07004KT
  • 292350Z 05006KT 9999 SCT040 17/14 Q1015 NOSIG RMK RWY23 07004KT
  • 292320Z 06004KT 030V130 9999 SCT040 18/14 Q1015 NOSIG RMK RWY23 06004KT
  • 292250Z VRB01KT 9999 SCT040 18/13 Q1016 NOSIG RMK RWY23 08003KT

TAF TAF LTAF
Valide du 30 à 00h jusqu'au 31 à 00h UTC


292240Z 3000/3024 VRB02KT 9999 SCT035



MET'MAP, la Météo Aéronautique d'un coup d'oeil ! - Copyright ORBIFLY Décembre 2007 - Disclaimer

ORBIFLY MET'MAP TEAM :

Programmation & Développement : Alexandra Zaïnal
Sur une idée originale de : Baudouin d'Aumeries
Assistance à la programmation : Marc-Olivier Méhu
Soutien technique & logistique : Manuel Goepfert

Contact : metmap@orbifly.com




SOURCES & CREDITS :

   NOAA